Time;durP1;ratioP1;P1;durP2;ratioP2;P2;SDS_P1;SDS_P2;PMS_P1;PMS_P2;Temp;Humidity;BMP_temperature;BMP_pressure;BME280_temperature;BME280_humidity;BME280_pressure;Samples;Min_cycle;Max_cycle;Signal;HPM_P1;HPM_P2
2024/01/07 00:02:20;;;;;;;84.82;17.40;;;;;;;;;;4987116;28;20041;-90
2024/01/07 00:04:47;;;;;;;114.53;17.83;;;;;;;;;;4991730;28;20041;-90
2024/01/07 00:07:14;;;;;;;143.15;21.40;;;;;;;;;;4978189;28;20144;-91
2024/01/07 00:09:41;;;;;;;152.35;20.45;;;;;;;;;;4967536;28;20139;-91
2024/01/07 00:12:07;;;;;;;124.60;20.30;;;;;;;;;;4987083;28;20038;-91
2024/01/07 00:14:34;;;;;;;131.02;18.95;;;;;;;;;;4957721;28;20048;-90
2024/01/07 00:17:01;;;;;;;78.85;16.52;;;;;;;;;;4983073;28;20040;-90
2024/01/07 00:19:28;;;;;;;156.20;20.95;;;;;;;;;;4980966;28;20037;-91
2024/01/07 00:21:54;;;;;;;108.30;17.90;;;;;;;;;;4979460;28;20141;-90
2024/01/07 00:24:21;;;;;;;112.35;18.83;;;;;;;;;;4988432;28;20936;-90
2024/01/07 00:26:48;;;;;;;126.35;19.13;;;;;;;;;;4986604;28;20057;-91
2024/01/07 00:29:15;;;;;;;75.38;16.35;;;;;;;;;;4987005;28;20037;-90
2024/01/07 00:31:41;;;;;;;80.18;15.00;;;;;;;;;;5000420;28;20539;-90
2024/01/07 00:34:29;;;;;;;106.32;16.88;;;;;;;;;;5003348;28;20041;-91
2024/01/07 00:37:02;;;;;;;;;;;;;;;;;;4970699;28;20518;-91
2024/01/07 00:39:29;;;;;;;116.00;16.15;;;;;;;;;;4980823;28;19946;-90
2024/01/07 00:41:56;;;;;;;55.13;14.57;;;;;;;;;;5001496;28;20109;-91
2024/01/07 00:44:23;;;;;;;84.10;12.57;;;;;;;;;;4998376;28;20929;-90
2024/01/07 00:46:49;;;;;;;99.78;13.10;;;;;;;;;;4974239;28;20870;-90
2024/01/07 00:49:16;;;;;;;42.30;9.35;;;;;;;;;;4992092;28;20825;-90
2024/01/07 00:51:44;;;;;;;72.65;12.38;;;;;;;;;;4991342;28;20045;-90
2024/01/07 00:54:10;;;;;;;46.13;9.40;;;;;;;;;;4982192;28;20054;-90
2024/01/07 00:56:37;;;;;;;91.45;12.27;;;;;;;;;;4991582;28;20037;-91
2024/01/07 00:59:04;;;;;;;78.72;11.63;;;;;;;;;;4988964;28;20045;-90
2024/01/07 01:01:31;;;;;;;93.57;13.63;;;;;;;;;;4992834;28;20061;-90
2024/01/07 01:03:58;;;;;;;75.25;11.00;;;;;;;;;;4991301;28;20125;-90
2024/01/07 01:06:25;;;;;;;51.22;11.95;;;;;;;;;;4975502;28;20034;-90
2024/01/07 01:08:52;;;;;;;52.63;12.40;;;;;;;;;;4991872;28;20033;-90
2024/01/07 01:11:19;;;;;;;47.50;8.73;;;;;;;;;;4990096;28;20042;-90
2024/01/07 01:13:46;;;;;;;86.80;12.00;;;;;;;;;;4987882;28;20629;-90
2024/01/07 01:16:13;;;;;;;104.50;13.77;;;;;;;;;;4993887;28;20049;-90
2024/01/07 01:18:40;;;;;;;92.07;12.05;;;;;;;;;;4991522;28;20042;-90
2024/01/07 01:21:08;;;;;;;75.10;12.32;;;;;;;;;;4980559;28;20046;-90
2024/01/07 01:23:34;;;;;;;101.95;13.68;;;;;;;;;;4991363;28;20052;-90
2024/01/07 01:26:01;;;;;;;132.25;16.13;;;;;;;;;;4980011;28;20545;-90
2024/01/07 01:28:28;;;;;;;118.07;13.02;;;;;;;;;;4973228;28;20034;-91
2024/01/07 01:30:55;;;;;;;109.65;13.70;;;;;;;;;;4983051;28;20048;-90
2024/01/07 01:33:22;;;;;;;63.03;10.30;;;;;;;;;;5000983;28;20842;-90
2024/01/07 01:35:49;;;;;;;81.68;11.55;;;;;;;;;;4983516;28;20042;-90
2024/01/07 01:38:16;;;;;;;83.03;10.10;;;;;;;;;;4993246;28;20030;-90
2024/01/07 01:40:43;;;;;;;69.38;9.82;;;;;;;;;;4976123;28;20123;-90
2024/01/07 01:43:10;;;;;;;40.55;8.45;;;;;;;;;;5000274;28;20893;-91
2024/01/07 01:45:37;;;;;;;52.38;7.60;;;;;;;;;;5010996;28;20037;-91
2024/01/07 01:48:04;;;;;;;50.30;9.45;;;;;;;;;;5007183;28;20045;-91
2024/01/07 01:50:31;;;;;;;51.30;9.73;;;;;;;;;;5002113;28;20058;-91
2024/01/07 01:52:58;;;;;;;55.63;9.70;;;;;;;;;;5001397;28;20042;-90
2024/01/07 01:55:24;;;;;;;43.25;10.63;;;;;;;;;;4998395;28;20053;-90
2024/01/07 01:57:51;;;;;;;48.90;6.88;;;;;;;;;;5000536;28;20390;-91
2024/01/07 02:03:23;;;;;;;166.63;18.23;;;;;;;;;;5006049;28;20057;-89
2024/01/07 02:05:50;;;;;;;99.30;11.35;;;;;;;;;;5010999;28;20042;-87
2024/01/07 02:08:17;;;;;;;50.65;9.60;;;;;;;;;;5014327;28;20034;-91
2024/01/07 02:10:44;;;;;;;93.70;12.88;;;;;;;;;;5001254;28;20065;-92
2024/01/07 02:13:11;;;;;;;147.00;15.63;;;;;;;;;;5010020;28;20030;-90
2024/01/07 02:15:38;;;;;;;59.72;11.02;;;;;;;;;;5006470;28;20067;-90
2024/01/07 02:18:04;;;;;;;139.55;15.73;;;;;;;;;;5013771;28;20069;-89
2024/01/07 02:20:31;;;;;;;46.40;10.30;;;;;;;;;;5019628;28;20045;-86
2024/01/07 02:22:58;;;;;;;34.58;9.95;;;;;;;;;;5028285;28;20026;-88
2024/01/07 02:25:25;;;;;;;76.80;10.20;;;;;;;;;;5007322;28;20030;-86
2024/01/07 02:27:54;;;;;;;29.00;9.23;;;;;;;;;;5003589;28;20496;-85
2024/01/07 02:30:21;;;;;;;25.52;6.13;;;;;;;;;;5014177;28;20315;-86
2024/01/07 02:32:49;;;;;;;64.00;11.95;;;;;;;;;;5011651;28;20038;-86
2024/01/07 02:35:16;;;;;;;53.15;9.50;;;;;;;;;;5011528;28;20108;-86
2024/01/07 02:37:44;;;;;;;54.50;9.95;;;;;;;;;;5012864;28;20034;-85
2024/01/07 02:40:10;;;;;;;55.58;10.95;;;;;;;;;;5003888;28;20515;-85
2024/01/07 02:42:37;;;;;;;71.22;11.50;;;;;;;;;;5000952;28;20045;-85
2024/01/07 02:45:04;;;;;;;30.67;6.32;;;;;;;;;;5012690;28;20057;-85
2024/01/07 02:47:31;;;;;;;42.30;10.05;;;;;;;;;;5014454;28;20042;-87
2024/01/07 02:49:58;;;;;;;74.35;10.77;;;;;;;;;;5005271;28;20097;-86
2024/01/07 02:52:25;;;;;;;32.05;8.18;;;;;;;;;;4991518;28;20400;-87
2024/01/07 02:54:51;;;;;;;36.28;9.23;;;;;;;;;;4988545;28;20563;-86
2024/01/07 02:57:18;;;;;;;66.18;10.30;;;;;;;;;;5005873;28;20149;-87
2024/01/07 02:59:44;;;;;;;64.80;9.93;;;;;;;;;;5000417;28;20037;-86
2024/01/07 03:02:11;;;;;;;74.50;10.80;;;;;;;;;;4974329;28;20066;-85
2024/01/07 03:04:37;;;;;;;67.72;8.02;;;;;;;;;;4984099;28;20174;-85
2024/01/07 03:07:04;;;;;;;30.95;7.80;;;;;;;;;;4981912;28;20516;-86
2024/01/07 03:09:30;;;;;;;42.10;8.38;;;;;;;;;;4977332;28;20121;-85
2024/01/07 03:11:57;;;;;;;39.55;7.38;;;;;;;;;;4986746;28;20037;-86
2024/01/07 03:14:24;;;;;;;36.08;8.98;;;;;;;;;;4989292;28;20053;-85
2024/01/07 03:16:50;;;;;;;18.48;6.80;;;;;;;;;;4989881;28;20688;-85
2024/01/07 03:19:17;;;;;;;54.13;10.63;;;;;;;;;;4986265;28;20060;-85
2024/01/07 03:21:44;;;;;;;29.00;7.55;;;;;;;;;;4988375;28;20039;-85
2024/01/07 03:24:10;;;;;;;47.33;8.65;;;;;;;;;;4986615;28;20963;-85
2024/01/07 03:26:37;;;;;;;58.17;9.20;;;;;;;;;;4985495;28;20042;-86
2024/01/07 03:29:04;;;;;;;30.38;8.07;;;;;;;;;;4982001;28;20140;-85
2024/01/07 03:31:30;;;;;;;46.38;9.45;;;;;;;;;;4984359;28;20105;-86
2024/01/07 03:33:57;;;;;;;52.50;9.82;;;;;;;;;;4981721;28;20042;-86
2024/01/07 03:36:24;;;;;;;72.50;9.77;;;;;;;;;;4978607;28;20042;-88
2024/01/07 03:38:50;;;;;;;53.65;8.25;;;;;;;;;;4975263;28;20031;-86
2024/01/07 03:41:18;;;;;;;66.45;10.50;;;;;;;;;;4976442;28;20113;-86
2024/01/07 03:43:46;;;;;;;53.38;9.82;;;;;;;;;;4974483;28;20038;-85
2024/01/07 03:46:13;;;;;;;78.35;10.30;;;;;;;;;;4975354;28;20627;-86
2024/01/07 03:48:40;;;;;;;132.57;15.27;;;;;;;;;;4972555;28;20148;-88
2024/01/07 03:51:07;;;;;;;85.70;10.98;;;;;;;;;;4974441;28;20050;-87
2024/01/07 03:53:34;;;;;;;65.45;10.00;;;;;;;;;;4966663;28;20114;-85
2024/01/07 03:56:02;;;;;;;71.05;9.45;;;;;;;;;;4976349;28;20153;-86
2024/01/07 03:58:28;;;;;;;44.60;8.40;;;;;;;;;;4979886;28;20138;-86
2024/01/07 04:00:56;;;;;;;40.72;8.98;;;;;;;;;;4984460;28;20031;-86
2024/01/07 04:03:22;;;;;;;79.70;10.73;;;;;;;;;;4999905;28;20065;-85
2024/01/07 04:05:49;;;;;;;49.10;9.18;;;;;;;;;;5000949;28;20046;-85
2024/01/07 04:08:16;;;;;;;137.25;14.07;;;;;;;;;;4999281;28;20045;-88
2024/01/07 04:10:42;;;;;;;94.53;12.15;;;;;;;;;;4993955;28;20101;-89
2024/01/07 04:13:09;;;;;;;43.25;8.63;;;;;;;;;;4997026;28;20411;-85
2024/01/07 04:15:36;;;;;;;110.05;12.65;;;;;;;;;;4990403;28;20112;-87
2024/01/07 04:18:03;;;;;;;90.22;11.20;;;;;;;;;;4995099;28;20110;-86
2024/01/07 04:20:30;;;;;;;66.43;10.15;;;;;;;;;;4997631;28;20133;-86
2024/01/07 04:22:57;;;;;;;50.88;10.60;;;;;;;;;;4989475;28;20053;-85
2024/01/07 04:25:24;;;;;;;63.90;10.00;;;;;;;;;;4998518;28;20042;-86
2024/01/07 04:27:50;;;;;;;72.65;9.43;;;;;;;;;;5001737;28;20809;-86
2024/01/07 04:30:18;;;;;;;54.55;9.77;;;;;;;;;;4995554;28;20121;-85
2024/01/07 04:32:45;;;;;;;79.82;9.55;;;;;;;;;;5002424;28;20037;-86
2024/01/07 04:35:12;;;;;;;33.80;8.52;;;;;;;;;;5001039;28;20046;-86
2024/01/07 04:37:39;;;;;;;30.50;8.45;;;;;;;;;;5007661;28;20598;-85
2024/01/07 04:40:06;;;;;;;61.70;9.57;;;;;;;;;;4989086;28;20038;-85
2024/01/07 04:42:32;;;;;;;40.03;9.05;;;;;;;;;;5009474;28;20053;-85
2024/01/07 04:44:59;;;;;;;42.55;7.60;;;;;;;;;;5011996;28;20526;-86
2024/01/07 04:47:27;;;;;;;49.42;9.68;;;;;;;;;;5005627;28;20103;-85
2024/01/07 04:49:54;;;;;;;72.10;9.63;;;;;;;;;;4987249;28;20049;-86
2024/01/07 04:52:22;;;;;;;41.15;8.18;;;;;;;;;;5002681;28;20045;-87
2024/01/07 04:54:50;;;;;;;29.50;6.85;;;;;;;;;;5004763;28;20042;-85
2024/01/07 04:57:17;;;;;;;98.05;12.10;;;;;;;;;;4992561;28;20110;-86
2024/01/07 04:59:44;;;;;;;60.42;11.38;;;;;;;;;;5004016;28;20037;-85
2024/01/07 05:02:11;;;;;;;70.00;9.65;;;;;;;;;;4982507;28;20567;-85
2024/01/07 05:04:38;;;;;;;58.28;9.45;;;;;;;;;;5003491;28;20127;-88
2024/01/07 05:07:06;;;;;;;22.13;5.22;;;;;;;;;;5003238;28;20049;-85
2024/01/07 05:09:33;;;;;;;41.50;10.43;;;;;;;;;;5007716;28;20149;-85
2024/01/07 05:12:00;;;;;;;58.72;10.25;;;;;;;;;;5007486;28;20389;-85
2024/01/07 05:14:27;;;;;;;35.20;8.93;;;;;;;;;;5011555;28;20034;-85
2024/01/07 05:16:54;;;;;;;37.65;7.95;;;;;;;;;;4993774;28;20117;-86
2024/01/07 05:19:21;;;;;;;83.57;8.85;;;;;;;;;;5011184;28;20030;-85
2024/01/07 05:21:47;;;;;;;21.25;5.38;;;;;;;;;;5007020;28;20053;-86
2024/01/07 05:24:14;;;;;;;28.35;7.57;;;;;;;;;;5002990;28;20052;-85
2024/01/07 05:26:44;;;;;;;53.17;9.30;;;;;;;;;;5005509;28;20049;-85
2024/01/07 05:29:11;;;;;;;38.22;7.93;;;;;;;;;;5008968;28;20108;-85
2024/01/07 05:31:41;;;;;;;37.78;8.98;;;;;;;;;;5009923;28;20073;-85
2024/01/07 05:34:08;;;;;;;32.65;8.15;;;;;;;;;;5010439;28;20045;-85
2024/01/07 05:36:35;;;;;;;28.67;6.57;;;;;;;;;;5010594;28;20022;-85
2024/01/07 05:39:02;;;;;;;39.38;7.75;;;;;;;;;;5010842;28;20088;-85
2024/01/07 05:41:29;;;;;;;46.25;8.43;;;;;;;;;;5007626;28;20385;-85
2024/01/07 05:43:55;;;;;;;28.33;8.30;;;;;;;;;;5007566;28;20477;-86
2024/01/07 05:46:22;;;;;;;27.83;7.50;;;;;;;;;;5011887;28;20065;-85
2024/01/07 05:48:49;;;;;;;54.65;8.63;;;;;;;;;;5009000;28;20115;-85
2024/01/07 05:51:16;;;;;;;59.38;8.57;;;;;;;;;;5006590;28;20042;-86
2024/01/07 05:53:45;;;;;;;32.03;7.43;;;;;;;;;;5008191;28;20492;-86
2024/01/07 05:56:12;;;;;;;37.35;8.55;;;;;;;;;;5007303;28;20388;-85
2024/01/07 05:58:39;;;;;;;40.78;8.60;;;;;;;;;;5006948;28;20076;-85
2024/01/07 06:01:07;;;;;;;239.80;22.50;;;;;;;;;;5001561;28;20042;-89
2024/01/07 06:03:34;;;;;;;56.83;8.75;;;;;;;;;;5002207;28;20044;-85
2024/01/07 06:06:01;;;;;;;68.95;9.05;;;;;;;;;;5008711;28;20064;-85
2024/01/07 06:08:28;;;;;;;48.72;8.77;;;;;;;;;;5008075;28;20763;-86
2024/01/07 06:10:55;;;;;;;42.25;9.70;;;;;;;;;;5005918;28;20580;-85
2024/01/07 06:13:22;;;;;;;84.50;10.68;;;;;;;;;;5003311;28;20045;-86
2024/01/07 06:15:49;;;;;;;37.50;9.77;;;;;;;;;;4993958;28;20037;-85
2024/01/07 06:18:15;;;;;;;45.05;11.50;;;;;;;;;;5003669;28;20041;-86
2024/01/07 06:20:42;;;;;;;82.07;11.98;;;;;;;;;;5008991;28;20041;-86
2024/01/07 06:23:10;;;;;;;42.80;8.63;;;;;;;;;;5002005;28;20064;-85
2024/01/07 06:25:36;;;;;;;55.55;9.27;;;;;;;;;;5003850;28;20046;-86
2024/01/07 06:28:03;;;;;;;48.45;11.02;;;;;;;;;;5009636;28;20473;-86
2024/01/07 06:30:29;;;;;;;36.67;9.48;;;;;;;;;;5010264;28;20041;-85
2024/01/07 06:32:56;;;;;;;59.58;10.32;;;;;;;;;;5010392;28;20041;-86
2024/01/07 06:35:23;;;;;;;50.60;8.77;;;;;;;;;;5009895;28;20065;-85
2024/01/07 06:37:51;;;;;;;33.33;6.35;;;;;;;;;;5011421;28;20041;-86
2024/01/07 06:40:18;;;;;;;64.60;11.73;;;;;;;;;;5008037;28;20128;-86
2024/01/07 06:42:45;;;;;;;72.60;12.32;;;;;;;;;;5010389;28;20034;-86
2024/01/07 06:45:11;;;;;;;50.30;9.77;;;;;;;;;;5011160;28;20084;-86
2024/01/07 06:47:38;;;;;;;30.10;8.57;;;;;;;;;;5009892;28;20701;-85
2024/01/07 06:50:05;;;;;;;54.30;10.18;;;;;;;;;;5010868;28;20065;-85
2024/01/07 06:52:32;;;;;;;31.70;8.20;;;;;;;;;;5007490;28;20471;-86
2024/01/07 06:54:59;;;;;;;39.53;10.63;;;;;;;;;;4992264;28;20551;-86
2024/01/07 06:57:25;;;;;;;47.35;9.15;;;;;;;;;;5005636;28;20155;-86
2024/01/07 06:59:52;;;;;;;58.60;10.35;;;;;;;;;;5006308;28;20103;-85
2024/01/07 07:02:20;;;;;;;35.95;10.05;;;;;;;;;;5002902;28;20140;-86
2024/01/07 07:04:47;;;;;;;54.58;10.23;;;;;;;;;;5008961;28;20044;-85
2024/01/07 07:07:14;;;;;;;123.20;17.83;;;;;;;;;;5006142;28;20065;-86
2024/01/07 07:09:41;;;;;;;157.85;23.63;;;;;;;;;;5001835;28;20127;-88
2024/01/07 07:12:08;;;;;;;83.35;13.88;;;;;;;;;;4979209;28;20100;-86
2024/01/07 07:14:35;;;;;;;51.10;12.88;;;;;;;;;;4984969;28;20121;-87
2024/01/07 07:17:01;;;;;;;68.05;21.20;;;;;;;;;;5008140;28;20057;-85
2024/01/07 07:19:28;;;;;;;94.82;15.32;;;;;;;;;;5004063;28;20373;-85
2024/01/07 07:21:55;;;;;;;65.18;12.65;;;;;;;;;;5009316;28;20127;-86
2024/01/07 07:24:22;;;;;;;59.40;10.82;;;;;;;;;;5008387;28;20042;-85
2024/01/07 07:26:48;;;;;;;69.03;12.35;;;;;;;;;;5009169;28;20069;-86
2024/01/07 07:29:15;;;;;;;74.30;12.98;;;;;;;;;;5007584;28;20049;-86
2024/01/07 07:31:42;;;;;;;46.08;8.73;;;;;;;;;;5015118;28;20063;-85
2024/01/07 07:34:09;;;;;;;43.25;10.18;;;;;;;;;;5014308;28;20096;-85
2024/01/07 07:36:36;;;;;;;84.93;10.20;;;;;;;;;;4996197;28;20048;-86
2024/01/07 07:39:02;;;;;;;33.83;7.38;;;;;;;;;;5004669;28;20499;-85
2024/01/07 07:41:29;;;;;;;46.40;9.90;;;;;;;;;;5008182;28;20551;-86
2024/01/07 07:43:56;;;;;;;31.25;7.93;;;;;;;;;;5005720;28;20461;-85
2024/01/07 07:46:23;;;;;;;35.53;8.30;;;;;;;;;;5012988;28;20112;-85
2024/01/07 07:48:49;;;;;;;73.70;10.95;;;;;;;;;;5010230;28;20054;-86
2024/01/07 07:51:16;;;;;;;67.10;7.60;;;;;;;;;;5010663;28;20065;-87
2024/01/07 07:53:42;;;;;;;81.72;14.88;;;;;;;;;;4999971;28;20041;-86
2024/01/07 07:56:09;;;;;;;289.00;27.25;;;;;;;;;;4996627;28;20136;-89
2024/01/07 07:58:36;;;;;;;55.28;10.93;;;;;;;;;;4942791;28;20153;-85
2024/01/07 08:01:03;;;;;;;335.35;29.95;;;;;;;;;;4974880;28;20034;-90
2024/01/07 08:03:31;;;;;;;374.80;33.03;;;;;;;;;;4963044;28;20033;-89
2024/01/07 08:05:58;;;;;;;536.78;49.65;;;;;;;;;;4977855;28;20968;-89
2024/01/07 08:08:25;;;;;;;655.97;58.17;;;;;;;;;;4913376;28;20053;-90
2024/01/07 08:10:51;;;;;;;911.40;83.63;;;;;;;;;;4924419;28;21036;-84
2024/01/07 08:13:18;;;;;;;928.05;88.82;;;;;;;;;;4902574;28;20145;-86
2024/01/07 08:15:45;;;;;;;910.90;85.72;;;;;;;;;;4900105;28;20074;-87
2024/01/07 08:18:11;;;;;;;851.10;82.28;;;;;;;;;;4896990;28;20104;-86
2024/01/07 08:20:38;;;;;;;889.15;81.68;;;;;;;;;;4898940;28;20111;-84
2024/01/07 08:23:05;;;;;;;907.38;87.22;;;;;;;;;;4899653;28;20045;-85
2024/01/07 08:25:32;;;;;;;924.20;88.05;;;;;;;;;;4898187;28;20049;-86
2024/01/07 08:27:59;;;;;;;930.08;88.28;;;;;;;;;;4907443;28;20491;-85
2024/01/07 08:30:26;;;;;;;944.45;93.25;;;;;;;;;;4893630;28;20073;-86
2024/01/07 08:32:52;;;;;;;1053.40;104.03;;;;;;;;;;4894546;28;20056;-86
2024/01/07 08:35:19;;;;;;;634.92;56.63;;;;;;;;;;4908742;28;20052;-87
2024/01/07 08:37:49;;;;;;;886.88;83.75;;;;;;;;;;4896244;28;20046;-86
2024/01/07 08:40:18;;;;;;;909.05;85.57;;;;;;;;;;4894284;28;21186;-85
2024/01/07 08:42:46;;;;;;;1046.40;102.40;;;;;;;;;;4894041;28;20125;-86
2024/01/07 08:45:12;;;;;;;885.88;83.57;;;;;;;;;;4896426;28;20034;-85
2024/01/07 08:47:40;;;;;;;915.17;87.88;;;;;;;;;;4895141;28;20139;-88
2024/01/07 08:50:10;;;;;;;988.22;95.05;;;;;;;;;;4882217;28;20830;-87
2024/01/07 08:52:37;;;;;;;948.00;91.43;;;;;;;;;;4893795;28;21217;-88
2024/01/07 08:55:06;;;;;;;884.55;85.13;;;;;;;;;;4898006;28;21170;-86
2024/01/07 08:57:33;;;;;;;887.05;86.40;;;;;;;;;;4903017;28;20041;-88
2024/01/07 08:59:59;;;;;;;891.38;84.13;;;;;;;;;;4898967;28;20045;-87
2024/01/07 09:02:26;;;;;;;886.50;85.65;;;;;;;;;;4899384;28;21212;-86
2024/01/07 09:04:53;;;;;;;878.53;84.90;;;;;;;;;;4902096;28;20144;-86
2024/01/07 09:07:19;;;;;;;887.17;86.07;;;;;;;;;;4886699;28;20041;-89
2024/01/07 09:09:46;;;;;;;946.22;90.30;;;;;;;;;;4857362;28;20394;-87
2024/01/07 09:12:13;;;;;;;1120.82;111.18;;;;;;;;;;4880208;28;20042;-88
2024/01/07 09:14:40;;;;;;;867.15;80.07;;;;;;;;;;4884703;28;20045;-87
2024/01/07 09:17:06;;;;;;;862.75;81.60;;;;;;;;;;4899030;28;20037;-87
2024/01/07 09:19:33;;;;;;;1184.57;121.22;;;;;;;;;;4877990;28;20152;-89
2024/01/07 09:22:02;;;;;;;872.17;82.20;;;;;;;;;;4897622;28;20034;-89
2024/01/07 09:24:29;;;;;;;878.35;86.50;;;;;;;;;;4899612;28;20897;-88
2024/01/07 09:26:59;;;;;;;1469.47;154.15;;;;;;;;;;4850599;28;21202;-88
2024/01/07 09:29:28;;;;;;;965.95;101.43;;;;;;;;;;4861991;28;20963;-89
2024/01/07 09:31:55;;;;;;;945.60;97.85;;;;;;;;;;4889385;28;20034;-89
2024/01/07 09:34:23;;;;;;;711.20;68.10;;;;;;;;;;4905009;28;20042;-90
2024/01/07 09:36:50;;;;;;;471.40;44.90;;;;;;;;;;4953743;28;20026;-84
2024/01/07 09:39:17;;;;;;;532.42;52.53;;;;;;;;;;4975063;28;20048;-85
2024/01/07 09:41:48;;;;;;;429.60;41.42;;;;;;;;;;4978941;28;20034;-91
2024/01/07 09:44:17;;;;;;;614.35;58.20;;;;;;;;;;4924265;28;20057;-90
2024/01/07 09:46:45;;;;;;;659.55;59.42;;;;;;;;;;4926854;28;20030;-90
2024/01/07 09:49:12;;;;;;;582.92;51.78;;;;;;;;;;4943242;28;20034;-90
2024/01/07 09:51:40;;;;;;;228.70;23.52;;;;;;;;;;4939144;28;20045;-87
2024/01/07 09:54:11;;;;;;;330.63;37.28;;;;;;;;;;4967206;28;20505;-88
2024/01/07 09:56:46;;;;;;;352.13;34.10;;;;;;;;;;4933813;28;21045;-84
2024/01/07 09:59:15;;;;;;;187.80;22.25;;;;;;;;;;4949043;28;20037;-85
2024/01/07 10:01:42;;;;;;;740.53;71.07;;;;;;;;;;4952788;28;20212;-90
2024/01/07 10:04:08;;;;;;;642.05;59.67;;;;;;;;;;4901778;28;21061;-86
2024/01/07 10:06:37;;;;;;;488.88;49.58;;;;;;;;;;4919449;28;20389;-88
2024/01/07 10:09:06;;;;;;;444.13;39.28;;;;;;;;;;4919995;28;20038;-92
2024/01/07 10:11:33;;;;;;;616.65;57.33;;;;;;;;;;4923583;28;20042;-90
2024/01/07 10:14:00;;;;;;;147.27;17.50;;;;;;;;;;4935722;28;20389;-90
2024/01/07 10:16:26;;;;;;;673.20;62.85;;;;;;;;;;4905598;28;20039;-91
2024/01/07 10:18:53;;;;;;;698.13;66.10;;;;;;;;;;4911976;28;20054;-90
2024/01/07 10:21:20;;;;;;;1390.38;141.50;;;;;;;;;;4845338;28;20959;-88
2024/01/07 10:23:47;;;;;;;1003.75;99.35;;;;;;;;;;4828892;28;20039;-88
2024/01/07 10:26:13;;;;;;;869.28;82.13;;;;;;;;;;4876804;28;20075;-83
2024/01/07 10:28:53;;;;;;;883.05;82.72;;;;;;;;;;4878511;28;20039;-86
2024/01/07 10:31:19;;;;;;;844.67;79.82;;;;;;;;;;4881384;28;20910;-85
2024/01/07 10:33:46;;;;;;;889.55;85.38;;;;;;;;;;4874904;28;20053;-85
2024/01/07 10:36:13;;;;;;;865.03;83.68;;;;;;;;;;4881101;28;21249;-85
2024/01/07 10:38:40;;;;;;;849.38;79.93;;;;;;;;;;4885167;28;20031;-87
2024/01/07 10:41:11;;;;;;;846.72;79.88;;;;;;;;;;4879438;28;21499;-87
2024/01/07 10:43:38;;;;;;;857.95;82.18;;;;;;;;;;4876918;28;20039;-86
2024/01/07 10:46:05;;;;;;;896.58;86.82;;;;;;;;;;4878698;28;20892;-87
2024/01/07 10:48:36;;;;;;;884.10;84.78;;;;;;;;;;4878226;28;21021;-85
2024/01/07 10:51:03;;;;;;;873.80;86.15;;;;;;;;;;4878873;28;20913;-84
2024/01/07 10:53:34;;;;;;;916.58;89.47;;;;;;;;;;4875422;28;20160;-83
2024/01/07 10:56:05;;;;;;;986.17;94.30;;;;;;;;;;4876062;28;20149;-85
2024/01/07 10:58:36;;;;;;;927.35;86.65;;;;;;;;;;4874654;28;20141;-84
2024/01/07 11:01:04;;;;;;;919.88;87.28;;;;;;;;;;4878260;28;20244;-85
2024/01/07 11:03:46;;;;;;;926.70;85.50;;;;;;;;;;4878569;28;20051;-84
2024/01/07 11:06:15;;;;;;;914.92;83.10;;;;;;;;;;4880531;28;20167;-85
2024/01/07 11:08:50;;;;;;;911.47;82.93;;;;;;;;;;4882295;28;21375;-84
2024/01/07 11:11:23;;;;;;;954.45;86.93;;;;;;;;;;4881172;28;20057;-85
2024/01/07 11:13:50;;;;;;;931.30;85.30;;;;;;;;;;4881610;28;20049;-84
2024/01/07 11:16:36;;;;;;;936.83;86.13;;;;;;;;;;4871878;28;20038;-85
2024/01/07 11:19:04;;;;;;;918.75;87.32;;;;;;;;;;4873538;28;20998;-85
2024/01/07 11:21:31;;;;;;;924.78;85.88;;;;;;;;;;4881031;28;20104;-86
2024/01/07 11:24:02;;;;;;;976.20;89.40;;;;;;;;;;4880492;28;20035;-85
2024/01/07 11:26:30;;;;;;;939.00;87.07;;;;;;;;;;4881717;28;20039;-85
2024/01/07 11:28:57;;;;;;;934.42;85.70;;;;;;;;;;4878076;28;20043;-82
2024/01/07 11:31:39;;;;;;;963.00;87.85;;;;;;;;;;4880779;28;20065;-84
2024/01/07 11:34:07;;;;;;;939.00;85.28;;;;;;;;;;4882196;28;20966;-82
2024/01/07 11:36:35;;;;;;;934.20;83.88;;;;;;;;;;4881144;28;20046;-84
2024/01/07 11:39:03;;;;;;;945.17;85.07;;;;;;;;;;4878637;28;20042;-84
2024/01/07 11:41:32;;;;;;;889.47;80.90;;;;;;;;;;4888294;28;20068;-85
2024/01/07 11:44:00;;;;;;;955.13;88.45;;;;;;;;;;4883962;28;20575;-85
2024/01/07 11:46:32;;;;;;;889.15;80.63;;;;;;;;;;4883016;28;20886;-84
2024/01/07 11:49:01;;;;;;;950.72;87.05;;;;;;;;;;4883793;28;20193;-84
2024/01/07 11:51:34;;;;;;;941.00;86.93;;;;;;;;;;4867835;28;20050;-84
2024/01/07 11:54:01;;;;;;;917.30;83.68;;;;;;;;;;4881674;28;20042;-84
2024/01/07 11:56:28;;;;;;;923.53;84.47;;;;;;;;;;4884924;28;20042;-86
2024/01/07 11:58:57;;;;;;;894.47;80.13;;;;;;;;;;4885410;28;21120;-84
2024/01/07 12:01:26;;;;;;;934.80;84.57;;;;;;;;;;4883579;28;21046;-86
2024/01/07 12:03:54;;;;;;;926.58;85.35;;;;;;;;;;4883136;28;20820;-86
2024/01/07 12:06:22;;;;;;;929.53;86.80;;;;;;;;;;4884869;28;21070;-85
2024/01/07 12:08:48;;;;;;;941.08;85.63;;;;;;;;;;4861463;28;20068;-85
2024/01/07 12:11:15;;;;;;;855.47;76.50;;;;;;;;;;4891238;28;20109;-85
2024/01/07 12:13:42;;;;;;;800.50;70.18;;;;;;;;;;4890594;28;20058;-85
2024/01/07 12:16:09;;;;;;;940.40;85.75;;;;;;;;;;4881752;28;20038;-85
2024/01/07 12:18:36;;;;;;;870.00;76.85;;;;;;;;;;4890953;28;20142;-88
2024/01/07 12:21:03;;;;;;;731.67;60.40;;;;;;;;;;4890397;28;20068;-90
2024/01/07 12:23:34;;;;;;;942.83;86.32;;;;;;;;;;4898282;28;20034;-90
2024/01/07 12:26:06;;;;;;;1001.70;93.32;;;;;;;;;;4877024;28;20045;-83
2024/01/07 12:28:33;;;;;;;828.13;75.13;;;;;;;;;;4903600;28;20054;-89
2024/01/07 12:31:01;;;;;;;857.20;77.03;;;;;;;;;;4902997;28;20046;-88
2024/01/07 12:33:30;;;;;;;672.75;58.03;;;;;;;;;;4923248;28;20042;-87
2024/01/07 12:35:57;;;;;;;840.67;77.65;;;;;;;;;;4902362;28;20041;-87
2024/01/07 12:38:25;;;;;;;840.97;77.22;;;;;;;;;;4889364;28;20057;-87
2024/01/07 12:40:52;;;;;;;831.83;74.95;;;;;;;;;;4891458;28;20046;-86
2024/01/07 12:43:19;;;;;;;711.08;63.40;;;;;;;;;;4895538;28;20916;-87
2024/01/07 12:45:47;;;;;;;663.63;61.63;;;;;;;;;;4902413;28;20030;-87
2024/01/07 12:48:13;;;;;;;823.72;72.45;;;;;;;;;;4891891;28;20065;-85
2024/01/07 12:50:41;;;;;;;750.13;67.72;;;;;;;;;;4904129;28;20630;-86
2024/01/07 12:53:09;;;;;;;901.10;82.60;;;;;;;;;;4884342;28;20046;-89
2024/01/07 12:55:36;;;;;;;709.28;63.03;;;;;;;;;;4892988;28;20042;-80
2024/01/07 12:58:02;;;;;;;742.83;65.45;;;;;;;;;;4914288;28;20031;-92
2024/01/07 13:00:30;;;;;;;1338.55;131.27;;;;;;;;;;4826703;28;20034;-84
2024/01/07 13:02:56;;;;;;;1408.50;139.30;;;;;;;;;;4833773;28;20061;-85
2024/01/07 13:05:27;;;;;;;1331.32;130.18;;;;;;;;;;4853006;28;20049;-85
2024/01/07 13:07:54;;;;;;;1266.32;124.05;;;;;;;;;;4854254;28;21225;-84
2024/01/07 13:10:21;;;;;;;1173.43;115.10;;;;;;;;;;4846650;28;20097;-85
2024/01/07 13:12:48;;;;;;;1224.28;118.78;;;;;;;;;;4845403;28;21205;-85
2024/01/07 13:15:20;;;;;;;1164.07;111.97;;;;;;;;;;4849970;28;20108;-85
2024/01/07 13:17:47;;;;;;;994.03;94.60;;;;;;;;;;4868339;28;20107;-87
2024/01/07 13:20:14;;;;;;;1358.88;134.32;;;;;;;;;;4856025;28;20072;-86
2024/01/07 13:22:41;;;;;;;1366.20;134.18;;;;;;;;;;4836370;28;20086;-90
2024/01/07 13:25:08;;;;;;;1060.93;100.57;;;;;;;;;;4870571;28;20034;-92
2024/01/07 13:27:35;;;;;;;1172.20;122.63;;;;;;;;;;4858153;28;21029;-89
2024/01/07 13:30:04;;;;;;;1178.65;115.40;;;;;;;;;;4865519;28;20203;-91
2024/01/07 13:32:36;;;;;;;1233.57;123.60;;;;;;;;;;4866313;28;20893;-88
2024/01/07 13:35:04;;;;;;;81.65;13.93;;;;;;;;;;4918074;28;20037;-93
2024/01/07 13:37:41;;;;;;;1130.70;111.38;;;;;;;;;;4866757;28;20200;-88
2024/01/07 13:40:10;;;;;;;1095.00;107.55;;;;;;;;;;4904852;28;20573;-91
2024/01/07 13:42:37;;;;;;;943.80;92.53;;;;;;;;;;4864876;28;21098;-90
2024/01/07 13:45:04;;;;;;;620.92;60.08;;;;;;;;;;4930531;28;20428;-88
2024/01/07 13:47:31;;;;;;;54.72;10.32;;;;;;;;;;4966770;28;20469;-81
2024/01/07 13:49:57;;;;;;;151.00;22.25;;;;;;;;;;4996425;28;20038;-89
2024/01/07 13:52:24;;;;;;;59.03;12.07;;;;;;;;;;4983461;28;20562;-83
2024/01/07 13:54:51;;;;;;;132.07;16.20;;;;;;;;;;4982928;28;20053;-81
2024/01/07 13:57:18;;;;;;;68.75;16.83;;;;;;;;;;4979163;28;20694;-82
2024/01/07 13:59:45;;;;;;;47.03;8.98;;;;;;;;;;4973538;28;20899;-81
2024/01/07 14:02:12;;;;;;;125.22;15.73;;;;;;;;;;4979886;28;20069;-82
2024/01/07 14:04:39;;;;;;;64.70;13.07;;;;;;;;;;4982720;28;20125;-84
2024/01/07 14:07:06;;;;;;;555.33;49.40;;;;;;;;;;4950649;28;21010;-91
2024/01/07 14:09:32;;;;;;;615.58;51.88;;;;;;;;;;4917597;28;20736;-90
2024/01/07 14:11:59;;;;;;;71.30;9.75;;;;;;;;;;4938569;28;20113;-82
2024/01/07 14:14:26;;;;;;;143.50;13.93;;;;;;;;;;4952263;28;20078;-82
2024/01/07 14:16:53;;;;;;;124.13;14.50;;;;;;;;;;4969512;28;20057;-85
2024/01/07 14:19:20;;;;;;;1105.18;101.30;;;;;;;;;;4903200;28;20066;-91